sensor_id;sensor_type;location;lat;lon;timestamp;pressure;altitude;pressure_sealevel;temperature;humidity
80566;BME280;69915;54.862;10.730;2024-02-04T00:00:14;101249.78;;;6.30;98.65
80566;BME280;69915;54.862;10.730;2024-02-04T00:02:40;101235.88;;;6.26;98.68
80566;BME280;69915;54.862;10.730;2024-02-04T00:05:06;101239.22;;;6.33;98.34
80566;BME280;69915;54.862;10.730;2024-02-04T00:07:35;101234.56;;;6.29;98.33
80566;BME280;69915;54.862;10.730;2024-02-04T00:10:00;101241.16;;;6.16;98.33
80566;BME280;69915;54.862;10.730;2024-02-04T00:12:26;101252.72;;;6.07;98.18
80566;BME280;69915;54.862;10.730;2024-02-04T00:14:52;101234.38;;;5.97;98.48
80566;BME280;69915;54.862;10.730;2024-02-04T00:17:17;101245.41;;;5.90;98.60
80566;BME280;69915;54.862;10.730;2024-02-04T00:19:43;101254.53;;;5.84;98.60
80566;BME280;69915;54.862;10.730;2024-02-04T00:22:09;101252.63;;;5.85;98.27
80566;BME280;69915;54.862;10.730;2024-02-04T00:24:34;101240.94;;;5.84;98.63
80566;BME280;69915;54.862;10.730;2024-02-04T00:27:00;101258.69;;;5.87;99.04
80566;BME280;69915;54.862;10.730;2024-02-04T00:29:26;101241.63;;;5.91;99.50
80566;BME280;69915;54.862;10.730;2024-02-04T00:31:51;101224.13;;;5.99;98.93
80566;BME280;69915;54.862;10.730;2024-02-04T00:34:16;101223.28;;;5.98;99.00
80566;BME280;69915;54.862;10.730;2024-02-04T00:36:42;101214.50;;;5.91;98.80
80566;BME280;69915;54.862;10.730;2024-02-04T00:39:08;101203.22;;;5.83;98.55
80566;BME280;69915;54.862;10.730;2024-02-04T00:41:34;101211.31;;;5.78;98.87
80566;BME280;69915;54.862;10.730;2024-02-04T00:44:00;101202.50;;;5.71;99.29
80566;BME280;69915;54.862;10.730;2024-02-04T00:46:26;101202.25;;;5.72;99.02
80566;BME280;69915;54.862;10.730;2024-02-04T00:48:52;101196.44;;;5.64;98.86
80566;BME280;69915;54.862;10.730;2024-02-04T00:51:17;101198.81;;;5.60;98.95
80566;BME280;69915;54.862;10.730;2024-02-04T00:53:45;101197.19;;;5.59;99.76
80566;BME280;69915;54.862;10.730;2024-02-04T00:56:10;101199.97;;;5.64;99.40
80566;BME280;69915;54.862;10.730;2024-02-04T00:58:37;101197.25;;;5.64;100.00
80566;BME280;69915;54.862;10.730;2024-02-04T01:01:02;101202.41;;;5.66;99.93
80566;BME280;69915;54.862;10.730;2024-02-04T01:03:28;101202.13;;;5.62;100.00
80566;BME280;69915;54.862;10.730;2024-02-04T01:05:54;101192.34;;;5.61;100.00
80566;BME280;69915;54.862;10.730;2024-02-04T01:08:21;101197.75;;;5.61;100.00
80566;BME280;69915;54.862;10.730;2024-02-04T01:10:47;101204.75;;;5.57;100.00
80566;BME280;69915;54.862;10.730;2024-02-04T01:13:12;101195.72;;;5.52;100.00
80566;BME280;69915;54.862;10.730;2024-02-04T01:15:38;101194.25;;;5.44;100.00
80566;BME280;69915;54.862;10.730;2024-02-04T01:18:03;101204.19;;;5.38;100.00
80566;BME280;69915;54.862;10.730;2024-02-04T01:20:29;101188.41;;;5.35;100.00
80566;BME280;69915;54.862;10.730;2024-02-04T01:22:54;101187.00;;;5.33;100.00
80566;BME280;69915;54.862;10.730;2024-02-04T01:25:20;101170.69;;;5.28;100.00
80566;BME280;69915;54.862;10.730;2024-02-04T01:27:45;101174.53;;;5.32;100.00
80566;BME280;69915;54.862;10.730;2024-02-04T01:30:11;101160.16;;;5.31;100.00
80566;BME280;69915;54.862;10.730;2024-02-04T01:32:37;101171.56;;;5.33;100.00
80566;BME280;69915;54.862;10.730;2024-02-04T01:35:02;101164.81;;;5.36;100.00
80566;BME280;69915;54.862;10.730;2024-02-04T01:37:28;101170.34;;;5.41;100.00
80566;BME280;69915;54.862;10.730;2024-02-04T01:39:53;101166.38;;;5.48;100.00
80566;BME280;69915;54.862;10.730;2024-02-04T01:42:19;101168.66;;;5.57;100.00
80566;BME280;69915;54.862;10.730;2024-02-04T01:44:44;101151.97;;;5.65;100.00
80566;BME280;69915;54.862;10.730;2024-02-04T01:47:10;101146.94;;;5.73;100.00
80566;BME280;69915;54.862;10.730;2024-02-04T01:49:36;101156.28;;;5.82;100.00
80566;BME280;69915;54.862;10.730;2024-02-04T01:52:02;101159.34;;;5.86;100.00
80566;BME280;69915;54.862;10.730;2024-02-04T01:54:30;101146.66;;;5.91;100.00
80566;BME280;69915;54.862;10.730;2024-02-04T01:56:58;101143.94;;;5.91;100.00
80566;BME280;69915;54.862;10.730;2024-02-04T01:59:24;101139.75;;;5.84;100.00
80566;BME280;69915;54.862;10.730;2024-02-04T02:01:56;101140.00;;;5.82;100.00
80566;BME280;69915;54.862;10.730;2024-02-04T02:04:24;101134.34;;;5.84;100.00
80566;BME280;69915;54.862;10.730;2024-02-04T02:06:50;101132.53;;;5.89;100.00
80566;BME280;69915;54.862;10.730;2024-02-04T02:09:16;101135.63;;;5.98;100.00
80566;BME280;69915;54.862;10.730;2024-02-04T02:12:09;101144.09;;;6.01;100.00
80566;BME280;69915;54.862;10.730;2024-02-04T02:14:40;101128.47;;;6.14;100.00
80566;BME280;69915;54.862;10.730;2024-02-04T02:17:11;101120.97;;;6.21;100.00
80566;BME280;69915;54.862;10.730;2024-02-04T02:20:06;101128.13;;;6.32;99.89
80566;BME280;69915;54.862;10.730;2024-02-04T02:22:50;101128.69;;;6.34;99.77
80566;BME280;69915;54.862;10.730;2024-02-04T02:25:26;101124.28;;;6.28;99.41
80566;BME280;69915;54.862;10.730;2024-02-04T02:27:52;101122.72;;;6.32;98.66
80566;BME280;69915;54.862;10.730;2024-02-04T02:30:18;101100.72;;;6.33;99.08
80566;BME280;69915;54.862;10.730;2024-02-04T02:32:44;101108.63;;;6.35;98.72
80566;BME280;69915;54.862;10.730;2024-02-04T02:35:13;101108.09;;;6.38;98.57
80566;BME280;69915;54.862;10.730;2024-02-04T02:40:33;101102.28;;;6.51;98.40
80566;BME280;69915;54.862;10.730;2024-02-04T02:43:02;101098.78;;;6.55;97.62
80566;BME280;69915;54.862;10.730;2024-02-04T02:45:28;101103.97;;;6.57;97.92
80566;BME280;69915;54.862;10.730;2024-02-04T02:47:54;101098.53;;;6.57;97.44
80566;BME280;69915;54.862;10.730;2024-02-04T02:50:20;101084.94;;;6.57;97.26
80566;BME280;69915;54.862;10.730;2024-02-04T02:52:46;101078.69;;;6.56;97.32
80566;BME280;69915;54.862;10.730;2024-02-04T02:55:11;101079.78;;;6.61;97.27
80566;BME280;69915;54.862;10.730;2024-02-04T02:57:37;101063.28;;;6.67;96.54
80566;BME280;69915;54.862;10.730;2024-02-04T03:00:03;101058.88;;;6.61;96.60
80566;BME280;69915;54.862;10.730;2024-02-04T03:02:31;101054.28;;;6.62;96.07
80566;BME280;69915;54.862;10.730;2024-02-04T03:04:56;101042.38;;;6.68;96.04
80566;BME280;69915;54.862;10.730;2024-02-04T03:07:22;101050.28;;;6.69;95.91
80566;BME280;69915;54.862;10.730;2024-02-04T03:09:47;101041.81;;;6.66;96.18
80566;BME280;69915;54.862;10.730;2024-02-04T03:12:13;101044.03;;;6.74;95.85
80566;BME280;69915;54.862;10.730;2024-02-04T03:14:38;101045.16;;;6.73;96.19
80566;BME280;69915;54.862;10.730;2024-02-04T03:17:04;101048.63;;;6.68;95.47
80566;BME280;69915;54.862;10.730;2024-02-04T03:19:29;101040.56;;;6.78;95.78
80566;BME280;69915;54.862;10.730;2024-02-04T03:21:55;101038.88;;;6.72;95.76
80566;BME280;69915;54.862;10.730;2024-02-04T03:24:20;101041.09;;;6.75;95.31
80566;BME280;69915;54.862;10.730;2024-02-04T03:26:46;101040.06;;;6.86;95.23
80566;BME280;69915;54.862;10.730;2024-02-04T03:29:11;101046.84;;;6.84;95.14
80566;BME280;69915;54.862;10.730;2024-02-04T03:31:37;101056.38;;;6.86;94.74
80566;BME280;69915;54.862;10.730;2024-02-04T03:34:02;101049.06;;;6.92;94.64
80566;BME280;69915;54.862;10.730;2024-02-04T03:36:28;101037.88;;;6.83;94.81
80566;BME280;69915;54.862;10.730;2024-02-04T03:39:27;101028.59;;;6.79;94.92
80566;BME280;69915;54.862;10.730;2024-02-04T03:41:57;101012.88;;;6.81;95.64
80566;BME280;69915;54.862;10.730;2024-02-04T03:44:23;101005.75;;;6.75;95.02
80566;BME280;69915;54.862;10.730;2024-02-04T03:46:49;101013.34;;;6.73;95.58
80566;BME280;69915;54.862;10.730;2024-02-04T03:49:15;101018.25;;;6.76;95.76
80566;BME280;69915;54.862;10.730;2024-02-04T03:51:41;100998.69;;;6.74;95.51
80566;BME280;69915;54.862;10.730;2024-02-04T03:54:06;101008.47;;;6.75;95.82
80566;BME280;69915;54.862;10.730;2024-02-04T03:56:32;100994.31;;;6.73;96.25
80566;BME280;69915;54.862;10.730;2024-02-04T03:58:57;100993.75;;;6.71;96.06
80566;BME280;69915;54.862;10.730;2024-02-04T04:01:23;100997.09;;;6.78;95.90
80566;BME280;69915;54.862;10.730;2024-02-04T04:03:49;101007.38;;;6.76;95.98
80566;BME280;69915;54.862;10.730;2024-02-04T04:06:14;101000.63;;;6.79;95.63
80566;BME280;69915;54.862;10.730;2024-02-04T04:08:40;100995.97;;;6.79;96.09
80566;BME280;69915;54.862;10.730;2024-02-04T04:11:08;100979.13;;;6.77;95.36
80566;BME280;69915;54.862;10.730;2024-02-04T04:13:34;100992.16;;;6.75;95.82
80566;BME280;69915;54.862;10.730;2024-02-04T04:16:01;100986.47;;;6.77;96.03
80566;BME280;69915;54.862;10.730;2024-02-04T04:18:26;100979.16;;;6.82;95.71
80566;BME280;69915;54.862;10.730;2024-02-04T04:20:52;100971.81;;;6.78;95.62
80566;BME280;69915;54.862;10.730;2024-02-04T04:23:17;100962.28;;;6.75;95.34
80566;BME280;69915;54.862;10.730;2024-02-04T04:25:43;100969.38;;;6.81;95.78
80566;BME280;69915;54.862;10.730;2024-02-04T04:28:08;100968.28;;;6.82;95.43
80566;BME280;69915;54.862;10.730;2024-02-04T04:30:34;100968.00;;;6.79;95.54
80566;BME280;69915;54.862;10.730;2024-02-04T04:32:59;100971.00;;;6.82;95.39
80566;BME280;69915;54.862;10.730;2024-02-04T04:35:25;100960.13;;;6.82;94.92
80566;BME280;69915;54.862;10.730;2024-02-04T04:37:50;100965.63;;;6.87;94.94
80566;BME280;69915;54.862;10.730;2024-02-04T04:40:16;100949.84;;;6.84;95.26
80566;BME280;69915;54.862;10.730;2024-02-04T04:42:41;100959.09;;;6.88;95.16
80566;BME280;69915;54.862;10.730;2024-02-04T04:45:07;100946.53;;;6.82;95.00
80566;BME280;69915;54.862;10.730;2024-02-04T04:47:33;100947.38;;;6.83;95.21
80566;BME280;69915;54.862;10.730;2024-02-04T04:49:59;100931.28;;;6.76;94.83
80566;BME280;69915;54.862;10.730;2024-02-04T04:52:25;100948.19;;;6.83;95.02
80566;BME280;69915;54.862;10.730;2024-02-04T04:54:50;100953.09;;;6.81;94.88
80566;BME280;69915;54.862;10.730;2024-02-04T04:57:16;100962.84;;;6.82;95.56
80566;BME280;69915;54.862;10.730;2024-02-04T04:59:41;100956.88;;;6.80;95.38
80566;BME280;69915;54.862;10.730;2024-02-04T05:02:07;100945.47;;;6.78;95.20
80566;BME280;69915;54.862;10.730;2024-02-04T05:04:32;100941.91;;;6.73;95.44
80566;BME280;69915;54.862;10.730;2024-02-04T05:06:57;100949.47;;;6.71;95.12
80566;BME280;69915;54.862;10.730;2024-02-04T05:09:23;100963.34;;;6.74;96.06
80566;BME280;69915;54.862;10.730;2024-02-04T05:11:48;100942.69;;;6.73;95.67
80566;BME280;69915;54.862;10.730;2024-02-04T05:14:14;100959.06;;;6.83;95.61
80566;BME280;69915;54.862;10.730;2024-02-04T05:16:39;100954.69;;;6.82;95.90
80566;BME280;69915;54.862;10.730;2024-02-04T05:19:05;100959.34;;;6.87;95.81
80566;BME280;69915;54.862;10.730;2024-02-04T05:21:30;100949.84;;;6.84;95.60
80566;BME280;69915;54.862;10.730;2024-02-04T05:23:56;100943.31;;;6.85;95.12
80566;BME280;69915;54.862;10.730;2024-02-04T05:26:21;100953.41;;;6.95;95.54
80566;BME280;69915;54.862;10.730;2024-02-04T05:28:47;100951.75;;;6.89;94.76
80566;BME280;69915;54.862;10.730;2024-02-04T05:31:12;100959.13;;;6.93;94.94
80566;BME280;69915;54.862;10.730;2024-02-04T05:33:38;100944.72;;;6.98;94.47
80566;BME280;69915;54.862;10.730;2024-02-04T05:36:03;100944.19;;;6.96;94.90
80566;BME280;69915;54.862;10.730;2024-02-04T05:38:30;100948.25;;;6.93;94.30
80566;BME280;69915;54.862;10.730;2024-02-04T05:40:56;100943.91;;;6.97;94.90
80566;BME280;69915;54.862;10.730;2024-02-04T05:43:21;100941.47;;;6.96;94.36
80566;BME280;69915;54.862;10.730;2024-02-04T05:45:47;100943.91;;;6.97;94.31
80566;BME280;69915;54.862;10.730;2024-02-04T05:48:12;100946.09;;;6.95;93.88
80566;BME280;69915;54.862;10.730;2024-02-04T05:50:38;100918.09;;;6.95;94.17
80566;BME280;69915;54.862;10.730;2024-02-04T05:53:04;100931.41;;;6.96;94.40
80566;BME280;69915;54.862;10.730;2024-02-04T05:55:30;100909.97;;;7.00;94.02
80566;BME280;69915;54.862;10.730;2024-02-04T05:57:55;100904.78;;;6.93;93.70
80566;BME280;69915;54.862;10.730;2024-02-04T06:00:21;100929.53;;;7.02;94.20
80566;BME280;69915;54.862;10.730;2024-02-04T06:02:46;100919.13;;;6.89;94.13
80566;BME280;69915;54.862;10.730;2024-02-04T06:05:13;100928.72;;;7.01;93.84
80566;BME280;69915;54.862;10.730;2024-02-04T06:07:38;100905.31;;;6.95;94.02
80566;BME280;69915;54.862;10.730;2024-02-04T06:10:04;100905.59;;;6.94;93.96
80566;BME280;69915;54.862;10.730;2024-02-04T06:12:30;100908.84;;;6.96;93.90
80566;BME280;69915;54.862;10.730;2024-02-04T06:14:56;100914.59;;;6.99;94.35
80566;BME280;69915;54.862;10.730;2024-02-04T06:17:21;100908.84;;;6.96;93.92
80566;BME280;69915;54.862;10.730;2024-02-04T06:19:47;100902.53;;;6.85;93.89
80566;BME280;69915;54.862;10.730;2024-02-04T06:22:14;100896.03;;;6.91;94.18
80566;BME280;69915;54.862;10.730;2024-02-04T06:24:40;100898.50;;;6.88;93.97
80566;BME280;69915;54.862;10.730;2024-02-04T06:27:07;100885.47;;;6.95;93.78
80566;BME280;69915;54.862;10.730;2024-02-04T06:29:33;100892.25;;;6.92;93.54
80566;BME280;69915;54.862;10.730;2024-02-04T06:31:58;100883.03;;;6.93;93.38
80566;BME280;69915;54.862;10.730;2024-02-04T06:34:24;100877.59;;;6.93;93.94
80566;BME280;69915;54.862;10.730;2024-02-04T06:36:50;100884.69;;;7.04;93.27
80566;BME280;69915;54.862;10.730;2024-02-04T06:39:16;100873.53;;;6.96;93.48
80566;BME280;69915;54.862;10.730;2024-02-04T06:41:41;100874.88;;;6.98;93.65
80566;BME280;69915;54.862;10.730;2024-02-04T06:44:07;100862.09;;;6.94;93.67
80566;BME280;69915;54.862;10.730;2024-02-04T06:46:32;100854.78;;;6.99;93.26
80566;BME280;69915;54.862;10.730;2024-02-04T06:48:58;100871.09;;;6.99;93.42
80566;BME280;69915;54.862;10.730;2024-02-04T06:51:23;100863.47;;;7.01;93.41
80566;BME280;69915;54.862;10.730;2024-02-04T06:53:49;100859.66;;;6.97;93.78
80566;BME280;69915;54.862;10.730;2024-02-04T06:56:15;100854.50;;;6.96;93.89
80566;BME280;69915;54.862;10.730;2024-02-04T06:58:41;100851.50;;;6.97;93.29
80566;BME280;69915;54.862;10.730;2024-02-04T07:01:07;100851.78;;;6.96;93.75
80566;BME280;69915;54.862;10.730;2024-02-04T07:03:33;100854.22;;;6.97;93.43
80566;BME280;69915;54.862;10.730;2024-02-04T07:05:59;100864.31;;;7.02;93.76
80566;BME280;69915;54.862;10.730;2024-02-04T07:08:25;100854.75;;;6.94;93.90
80566;BME280;69915;54.862;10.730;2024-02-04T07:10:50;100868.09;;;6.96;94.07
80566;BME280;69915;54.862;10.730;2024-02-04T07:13:16;100852.00;;;6.89;94.08
80566;BME280;69915;54.862;10.730;2024-02-04T07:15:41;100849.31;;;6.94;94.05
80566;BME280;69915;54.862;10.730;2024-02-04T07:18:07;100837.91;;;6.92;94.02
80566;BME280;69915;54.862;10.730;2024-02-04T07:20:33;100848.25;;;7.00;94.10
80566;BME280;69915;54.862;10.730;2024-02-04T07:22:58;100833.56;;;6.96;94.31
80566;BME280;69915;54.862;10.730;2024-02-04T07:25:23;100842.56;;;7.02;94.08
80566;BME280;69915;54.862;10.730;2024-02-04T07:27:49;100842.53;;;6.97;93.94
80566;BME280;69915;54.862;10.730;2024-02-04T07:30:15;100835.72;;;6.89;94.58
80566;BME280;69915;54.862;10.730;2024-02-04T07:32:40;100824.84;;;6.94;94.27
80566;BME280;69915;54.862;10.730;2024-02-04T07:35:06;100833.56;;;6.96;94.52
80566;BME280;69915;54.862;10.730;2024-02-04T07:37:32;100827.06;;;7.02;93.83
80566;BME280;69915;54.862;10.730;2024-02-04T07:39:58;100813.97;;;6.94;94.36
80566;BME280;69915;54.862;10.730;2024-02-04T07:42:24;100822.69;;;6.96;94.01
80566;BME280;69915;54.862;10.730;2024-02-04T07:44:49;100832.22;;;6.99;94.04
80566;BME280;69915;54.862;10.730;2024-02-04T07:47:14;100830.84;;;7.01;94.26
80566;BME280;69915;54.862;10.730;2024-02-04T07:49:41;100824.34;;;7.02;93.80
80566;BME280;69915;54.862;10.730;2024-02-04T07:52:06;100825.97;;;6.98;93.60
80566;BME280;69915;54.862;10.730;2024-02-04T07:54:32;100821.09;;;7.05;93.64
80566;BME280;69915;54.862;10.730;2024-02-04T07:56:59;100829.50;;;6.99;93.94
80566;BME280;69915;54.862;10.730;2024-02-04T07:59:24;100838.78;;;7.13;94.04
80566;BME280;69915;54.862;10.730;2024-02-04T08:01:50;100834.69;;;7.10;93.31
80566;BME280;69915;54.862;10.730;2024-02-04T08:04:15;100831.72;;;7.12;93.50
80566;BME280;69915;54.862;10.730;2024-02-04T08:06:41;100817.84;;;7.08;93.50
80566;BME280;69915;54.862;10.730;2024-02-04T08:09:07;100815.66;;;7.05;93.49
80566;BME280;69915;54.862;10.730;2024-02-04T08:11:33;100811.59;;;7.13;93.59
80566;BME280;69915;54.862;10.730;2024-02-04T08:13:59;100801.50;;;7.03;93.74
80566;BME280;69915;54.862;10.730;2024-02-04T08:16:25;100793.91;;;7.10;93.46
80566;BME280;69915;54.862;10.730;2024-02-04T08:18:51;100802.63;;;7.18;93.49
80566;BME280;69915;54.862;10.730;2024-02-04T08:21:16;100790.66;;;7.19;93.88
80566;BME280;69915;54.862;10.730;2024-02-04T08:23:42;100789.28;;;7.16;93.10
80566;BME280;69915;54.862;10.730;2024-02-04T08:26:07;100765.38;;;7.23;93.34
80566;BME280;69915;54.862;10.730;2024-02-04T08:28:33;100776.53;;;7.22;93.25
80566;BME280;69915;54.862;10.730;2024-02-04T08:30:58;100777.91;;;7.29;93.00
80566;BME280;69915;54.862;10.730;2024-02-04T08:33:23;100783.34;;;7.24;93.06
80566;BME280;69915;54.862;10.730;2024-02-04T08:35:49;100767.56;;;7.26;92.87
80566;BME280;69915;54.862;10.730;2024-02-04T08:38:16;100778.44;;;7.21;92.83
80566;BME280;69915;54.862;10.730;2024-02-04T08:40:41;100794.50;;;7.28;92.79
80566;BME280;69915;54.862;10.730;2024-02-04T08:43:07;100777.63;;;7.26;93.11
80566;BME280;69915;54.862;10.730;2024-02-04T08:45:32;100763.78;;;7.27;92.76
80566;BME280;69915;54.862;10.730;2024-02-04T08:47:58;100783.06;;;7.26;92.97
80566;BME280;69915;54.862;10.730;2024-02-04T08:50:23;100780.34;;;7.21;92.86
80566;BME280;69915;54.862;10.730;2024-02-04T08:52:49;100762.69;;;7.33;92.71
80566;BME280;69915;54.862;10.730;2024-02-04T08:55:14;100749.34;;;7.32;92.89
80566;BME280;69915;54.862;10.730;2024-02-04T08:57:40;100760.22;;;7.32;92.88
80566;BME280;69915;54.862;10.730;2024-02-04T09:00:06;100765.38;;;7.28;92.22
80566;BME280;69915;54.862;10.730;2024-02-04T09:02:37;100765.41;;;7.33;92.52
80566;BME280;69915;54.862;10.730;2024-02-04T09:05:03;100763.50;;;7.34;92.36
80566;BME280;69915;54.862;10.730;2024-02-04T09:07:30;100740.13;;;7.33;92.23
80566;BME280;69915;54.862;10.730;2024-02-04T09:09:56;100778.47;;;7.36;92.58
80566;BME280;69915;54.862;10.730;2024-02-04T09:12:22;100775.19;;;7.34;92.53
80566;BME280;69915;54.862;10.730;2024-02-04T09:14:47;100771.13;;;7.42;92.24
80566;BME280;69915;54.862;10.730;2024-02-04T09:17:13;100766.75;;;7.36;92.20
80566;BME280;69915;54.862;10.730;2024-02-04T09:19:39;100758.06;;;7.34;91.89
80566;BME280;69915;54.862;10.730;2024-02-04T09:22:04;100768.94;;;7.44;91.89
80566;BME280;69915;54.862;10.730;2024-02-04T09:24:30;100767.84;;;7.35;91.73
80566;BME280;69915;54.862;10.730;2024-02-04T09:26:55;100751.56;;;7.40;91.57
80566;BME280;69915;54.862;10.730;2024-02-04T09:29:21;100767.84;;;7.50;91.29
80566;BME280;69915;54.862;10.730;2024-02-04T09:31:47;100777.66;;;7.61;91.25
80566;BME280;69915;54.862;10.730;2024-02-04T09:34:14;100760.50;;;7.55;91.03
80566;BME280;69915;54.862;10.730;2024-02-04T09:36:40;100770.31;;;7.51;90.79
80566;BME280;69915;54.862;10.730;2024-02-04T09:39:05;100771.94;;;7.47;90.90
80566;BME280;69915;54.862;10.730;2024-02-04T09:41:31;100770.03;;;7.48;90.51
80566;BME280;69915;54.862;10.730;2024-02-04T09:43:58;100761.88;;;7.53;91.10
80566;BME280;69915;54.862;10.730;2024-02-04T09:46:25;100779.84;;;7.54;90.39
80566;BME280;69915;54.862;10.730;2024-02-04T09:48:51;100788.00;;;7.54;90.40
80566;BME280;69915;54.862;10.730;2024-02-04T09:51:17;100775.19;;;7.64;90.40
80566;BME280;69915;54.862;10.730;2024-02-04T09:53:44;100767.31;;;7.63;90.43
80566;BME280;69915;54.862;10.730;2024-02-04T09:56:11;100761.88;;;7.68;89.76
80566;BME280;69915;54.862;10.730;2024-02-04T09:58:38;100758.06;;;7.69;89.83
80566;BME280;69915;54.862;10.730;2024-02-04T10:01:06;100758.03;;;7.74;89.41
80566;BME280;69915;54.862;10.730;2024-02-04T10:03:35;100763.75;;;7.67;89.21
80566;BME280;69915;54.862;10.730;2024-02-04T10:06:01;100765.41;;;7.63;89.60
80566;BME280;69915;54.862;10.730;2024-02-04T10:08:26;100759.41;;;7.72;89.84
80566;BME280;69915;54.862;10.730;2024-02-04T10:10:52;100764.59;;;7.68;89.69
80566;BME280;69915;54.862;10.730;2024-02-04T10:13:19;100757.53;;;7.67;89.62
80566;BME280;69915;54.862;10.730;2024-02-04T10:15:44;100750.44;;;7.76;89.49
80566;BME280;69915;54.862;10.730;2024-02-04T10:18:10;100752.06;;;7.77;89.08
80566;BME280;69915;54.862;10.730;2024-02-04T10:20:36;100767.03;;;7.85;89.36
80566;BME280;69915;54.862;10.730;2024-02-04T10:23:01;100770.53;;;7.95;89.21
80566;BME280;69915;54.862;10.730;2024-02-04T10:25:27;100766.75;;;7.96;88.84
80566;BME280;69915;54.862;10.730;2024-02-04T10:27:53;100750.97;;;7.83;88.35
80566;BME280;69915;54.862;10.730;2024-02-04T10:30:20;100746.59;;;7.97;88.46
80566;BME280;69915;54.862;10.730;2024-02-04T10:32:47;100746.59;;;7.97;88.31
80566;BME280;69915;54.862;10.730;2024-02-04T10:35:13;100734.06;;;7.96;88.26
80566;BME280;69915;54.862;10.730;2024-02-04T10:37:38;100740.03;;;7.98;88.04
80566;BME280;69915;54.862;10.730;2024-02-04T10:40:05;100738.44;;;7.97;87.86
80566;BME280;69915;54.862;10.730;2024-02-04T10:42:31;100726.47;;;7.88;87.97
80566;BME280;69915;54.862;10.730;2024-02-04T10:44:58;100711.50;;;7.91;88.29
80566;BME280;69915;54.862;10.730;2024-02-04T10:47:30;100721.00;;;8.03;88.86
80566;BME280;69915;54.862;10.730;2024-02-04T10:49:58;100714.41;;;8.14;88.36
80566;BME280;69915;54.862;10.730;2024-02-04T10:52:27;100716.56;;;8.22;87.64
80566;BME280;69915;54.862;10.730;2024-02-04T10:54:53;100726.91;;;8.20;87.36
80566;BME280;69915;54.862;10.730;2024-02-04T10:57:23;100720.13;;;8.28;87.28
80566;BME280;69915;54.862;10.730;2024-02-04T10:59:52;100712.75;;;8.23;86.73
80566;BME280;69915;54.862;10.730;2024-02-04T11:02:19;100709.75;;;8.25;86.94
80566;BME280;69915;54.862;10.730;2024-02-04T11:04:47;100700.78;;;8.25;86.45
80566;BME280;69915;54.862;10.730;2024-02-04T11:07:14;100701.00;;;8.38;86.67
80566;BME280;69915;54.862;10.730;2024-02-04T11:09:40;100699.66;;;8.41;86.40
80566;BME280;69915;54.862;10.730;2024-02-04T11:12:11;100689.28;;;8.43;86.04
80566;BME280;69915;54.862;10.730;2024-02-04T11:14:40;100697.97;;;8.45;86.49
80566;BME280;69915;54.862;10.730;2024-02-04T11:23:01;100685.50;;;8.34;86.40
80566;BME280;69915;54.862;10.730;2024-02-04T11:25:45;100670.75;;;8.45;86.29
80566;BME280;69915;54.862;10.730;2024-02-04T11:28:12;100678.69;;;8.36;86.06
80566;BME280;69915;54.862;10.730;2024-02-04T11:30:38;100677.88;;;8.41;86.23
80566;BME280;69915;54.862;10.730;2024-02-04T11:33:04;100674.56;;;8.44;85.92
80566;BME280;69915;54.862;10.730;2024-02-04T11:35:31;100676.75;;;8.47;85.80
80566;BME280;69915;54.862;10.730;2024-02-04T11:37:57;100675.38;;;8.44;85.90
80566;BME280;69915;54.862;10.730;2024-02-04T11:40:23;100694.47;;;8.39;86.17
80566;BME280;69915;54.862;10.730;2024-02-04T11:42:49;100685.78;;;8.27;86.11
80566;BME280;69915;54.862;10.730;2024-02-04T11:45:16;100675.19;;;8.20;86.41
80566;BME280;69915;54.862;10.730;2024-02-04T11:47:42;100682.25;;;8.21;87.06
80566;BME280;69915;54.862;10.730;2024-02-04T11:50:08;100680.88;;;8.24;87.22
80566;BME280;69915;54.862;10.730;2024-02-04T11:52:35;100680.88;;;8.24;86.99
80566;BME280;69915;54.862;10.730;2024-02-04T11:55:00;100671.38;;;8.16;87.41
80566;BME280;69915;54.862;10.730;2024-02-04T11:57:26;100667.59;;;8.12;87.46
80566;BME280;69915;54.862;10.730;2024-02-04T11:59:53;100683.91;;;8.17;87.66
80566;BME280;69915;54.862;10.730;2024-02-04T12:02:20;100662.16;;;8.12;87.50
80566;BME280;69915;54.862;10.730;2024-02-04T12:04:46;100679.50;;;8.27;87.59
80566;BME280;69915;54.862;10.730;2024-02-04T12:07:16;100658.28;;;8.34;87.38
80566;BME280;69915;54.862;10.730;2024-02-04T12:09:42;100671.56;;;8.45;86.37
80566;BME280;69915;54.862;10.730;2024-02-04T12:12:08;100663.66;;;8.49;86.31
80566;BME280;69915;54.862;10.730;2024-02-04T12:14:39;100670.94;;;8.58;86.19
80566;BME280;69915;54.862;10.730;2024-02-04T12:17:10;100673.03;;;8.71;86.28
80566;BME280;69915;54.862;10.730;2024-02-04T12:19:36;100668.19;;;8.63;85.68
80566;BME280;69915;54.862;10.730;2024-02-04T12:22:02;100661.91;;;8.63;85.75
80566;BME280;69915;54.862;10.730;2024-02-04T12:24:33;100656.47;;;8.63;85.95
80566;BME280;69915;54.862;10.730;2024-02-04T12:26:59;100658.09;;;8.64;85.96
80566;BME280;69915;54.862;10.730;2024-02-04T12:29:24;100664.69;;;8.58;85.52
80566;BME280;69915;54.862;10.730;2024-02-04T12:32:00;100658.44;;;8.52;85.73
80566;BME280;69915;54.862;10.730;2024-02-04T12:34:26;100665.50;;;8.58;85.78
80566;BME280;69915;54.862;10.730;2024-02-04T12:37:01;100654.59;;;8.53;86.12
80566;BME280;69915;54.862;10.730;2024-02-04T12:39:28;100666.88;;;8.56;86.14
80566;BME280;69915;54.862;10.730;2024-02-04T12:41:54;100670.44;;;8.51;85.87
80566;BME280;69915;54.862;10.730;2024-02-04T12:44:20;100657.09;;;8.50;85.99
80566;BME280;69915;54.862;10.730;2024-02-04T12:46:45;100650.81;;;8.54;85.63
80566;BME280;69915;54.862;10.730;2024-02-04T12:49:21;100659.50;;;8.61;86.19
80566;BME280;69915;54.862;10.730;2024-02-04T12:51:47;100662.53;;;8.55;85.94